Time;durP1;ratioP1;P1;durP2;ratioP2;P2;SDS_P1;SDS_P2;PMS_P1;PMS_P2;Temp;Humidity;BMP_temperature;BMP_pressure;BME280_temperature;BME280_humidity;BME280_pressure;Samples;Min_cycle;Max_cycle;Signal;HPM_P1;HPM_P2
2021/08/23 09:24:31;;;;;;;5.47;2.20;;;21.30;57.10;;;;;;5707476;23;20612;-84
2021/08/23 09:27:07;;;;;;;2.42;2.00;;;20.90;56.80;;;;;;5018976;28;20223;-85
2021/08/23 09:30:04;;;;;;;4.03;2.33;;;20.80;58.80;;;;;;5018151;28;20705;-85
2021/08/23 09:32:33;;;;;;;5.65;2.40;;;21.00;56.80;;;;;;5017748;28;20310;-84
2021/08/23 09:35:00;;;;;;;3.13;2.25;;;21.10;56.90;;;;;;5017632;28;20681;-84
2021/08/23 09:37:29;;;;;;;4.43;2.30;;;21.30;57.10;;;;;;5017225;28;20279;-85
2021/08/23 09:40:09;;;;;;;3.13;2.25;;;21.30;57.10;;;;;;5017744;28;20202;-85
2021/08/23 09:42:36;;;;;;;2.63;2.22;;;21.20;56.20;;;;;;5017500;28;20226;-84
2021/08/23 09:45:02;;;;;;;2.90;2.20;;;21.10;56.90;;;;;;5019024;28;20213;-84
2021/08/23 09:47:30;;;;;;;2.85;2.17;;;21.00;56.80;;;;;;5018924;28;20690;-84
2021/08/23 10:14:04;;;;;;;2.80;2.20;;;21.00;57.80;;;;;;5018088;28;20191;-84
2021/08/23 10:16:33;;;;;;;2.65;2.38;;;21.40;59.40;;;;;;5019065;28;20670;-84
2021/08/23 10:19:00;;;;;;;2.67;2.05;;;21.50;55.70;;;;;;5017041;28;20289;-84
2021/08/23 10:21:28;;;;;;;2.38;2.10;;;21.60;54.30;;;;;;5015667;28;20198;-84
2021/08/23 10:23:55;;;;;;;4.10;2.08;;;22.20;51.40;;;;;;5015613;28;20299;-82
2021/08/23 10:26:23;;;;;;;2.60;2.40;;;22.60;51.50;;;;;;5014682;28;20265;-84
2021/08/23 10:28:50;;;;;;;2.72;2.28;;;23.30;44.60;;;;;;5013939;28;20195;-82
2021/08/23 10:31:20;;;;;;;2.80;1.90;;;23.50;44.70;;;;;;5014262;28;20199;-83
2021/08/23 10:33:48;;;;;;;2.03;1.85;;;22.90;44.30;;;;;;5015861;28;20223;-84
2021/08/23 10:36:17;;;;;;;2.45;1.83;;;22.50;46.10;;;;;;5016015;28;20231;-83
2021/08/23 10:38:44;;;;;;;1.90;1.70;;;22.10;48.90;;;;;;5016598;28;20219;-83
2021/08/23 10:41:15;;;;;;;1.90;1.80;;;22.00;50.40;;;;;;5016715;28;20635;-83
2021/08/23 10:47:15;;;;;;;3.30;1.98;;;22.20;49.80;;;;;;5019159;28;20297;-82
2021/08/23 10:53:16;;;;;;;3.13;1.83;;;22.50;45.50;;;;;;5015606;28;20230;-86
2021/08/23 10:56:17;;;;;;;2.10;1.90;;;22.30;45.90;;;;;;5015901;28;20701;-82
2021/08/23 10:58:45;;;;;;;2.67;1.85;;;22.70;44.20;;;;;;5013416;28;20268;-83
2021/08/23 11:01:21;;;;;;;3.25;2.13;;;23.70;44.20;;;;;;5015473;28;20602;-84
2021/08/23 11:04:00;;;;;;;3.03;2.00;;;24.50;37.10;;;;;;5014154;28;20273;-84
2021/08/23 11:06:27;;;;;;;4.47;1.92;;;25.70;36.70;;;;;;5013733;28;20205;-83
2021/08/23 11:09:04;;;;;;;4.05;2.22;;;26.20;33.10;;;;;;5013718;28;20194;-84
2021/08/23 11:11:36;;;;;;;2.20;2.00;;;26.00;31.60;;;;;;5013417;28;20203;-84
2021/08/23 11:14:03;;;;;;;2.33;1.73;;;24.90;34.40;;;;;;5015242;28;20187;-85
2021/08/23 11:16:32;;;;;;;2.50;1.90;;;24.30;35.70;;;;;;5013412;28;20744;-82
2021/08/23 11:19:06;;;;;;;2.65;1.92;;;24.00;37.60;;;;;;5003059;28;20274;-80
2021/08/23 11:21:33;;;;;;;1.95;1.60;;;23.70;39.80;;;;;;4999305;28;20187;-83
2021/08/23 11:31:19;;;;;;;3.63;1.90;;;23.60;42.90;;;;;;4935439;29;20638;-85
2021/08/23 11:36:23;;;;;;;3.22;1.98;;;23.40;41.20;;;;;;5033320;28;20602;-85
2021/08/23 11:38:50;;;;;;;3.40;2.13;;;23.40;44.70;;;;;;5036222;28;20244;-84
2021/08/23 11:41:17;;;;;;;3.65;2.03;;;23.20;40.20;;;;;;5035087;28;20202;-85
2021/08/23 11:43:44;;;;;;;4.00;2.05;;;22.80;40.20;;;;;;5035584;28;20202;-85
2021/08/23 11:46:13;;;;;;;5.00;2.38;;;22.20;41.50;;;;;;5035948;28;20203;-85
2021/08/23 11:48:43;;;;;;;7.22;6.50;;;22.50;43.20;;;;;;5037563;28;20241;-84
2021/08/23 11:51:10;;;;;;;8.50;5.25;;;22.90;41.40;;;;;;5036351;28;20285;-84
2021/08/23 11:53:38;;;;;;;2.88;2.35;;;23.30;39.10;;;;;;5036230;28;20284;-84
2021/08/23 11:56:08;;;;;;;3.22;2.60;;;23.50;42.30;;;;;;5035548;28;20568;-84
2021/08/23 11:58:40;;;;;;;18.67;16.45;;;23.60;39.20;;;;;;5035821;28;20586;-84
2021/08/23 12:01:12;;;;;;;4.85;2.40;;;23.40;40.60;;;;;;5035574;28;20187;-85
2021/08/23 12:03:58;;;;;;;14.93;13.23;;;23.20;40.70;;;;;;5036542;28;20530;-84
2021/08/23 12:06:33;;;;;;;9.27;8.32;;;22.80;41.60;;;;;;5036700;28;20191;-84
2021/08/23 12:09:03;;;;;;;5.00;2.85;;;22.40;43.60;;;;;;5038713;28;20186;-84
2021/08/23 12:11:42;;;;;;;4.43;3.25;;;22.40;44.70;;;;;;5036413;28;20294;-84
2021/08/23 12:17:34;;;;;;;4.85;3.97;;;22.00;45.00;;;;;;5036443;28;20723;-84
